Asbury, MO

1:18 PM CST on January 28, 2015 (GMT -0600)
Country Side Estates | Change Station
CLOSE
Current Station
Personal Weather Station
Location: Webb City, MO
Elevation: 968 ft
Nearby Weather Stations
Active Advisory: Special Statement

Elev 968 ft 37.16 °N, 94.48 °W | Updated 6 minutes ago

Clear
Clear
73.4 °F
Feels Like 77 °F
N
11.9
Wind Variable Wind from SW

Today
High -- | Low -- °F
--% Chance of Precip.
Yesterday
High -- | Low -- °F
Precip. -- in
7:24 AM 5:38 PM
Waxing Gibbous, 67% visible
Pressure 29.90 in
Visibility 10.0 miles
Clouds Clear
Heat Index 77 °F
Dew Point 44 °F
Humidity 35%
Rainfall 0.00 in
Snow Depth Not available.
UV 4 out of 12
Pollen 3.30 out of 12
Air Quality Not available.
Flu Activity Not available.
METAR KJLN 281853Z 19019G27KT 10SM CLR 23/03 A2991 RMK AO2 PK WND 20031/1801 SLP124 T02280028

More Conditions Fewer Conditions

Pressure 29.90 in
Visibility 10.0 miles
Clouds Clear
Heat Index 77 °F
Dew Point 44 °F
Humidity 35%
Rainfall 0.00 in
Snow Depth Not available.
UV 4 out of 12
Pollen 3.30 out of 12
Air Quality Not available.
Flu Activity Not available.
METAR KJLN 281853Z 19019G27KT 10SM CLR 23/03 A2991 RMK AO2 PK WND 20031/1801 SLP124 T02280028

More Conditions Fewer Conditions

10-Day Weather Forecast

Almanac

Astronomy

Jan. 28, 2015 Rise Set
Actual Time
Civil Twilight
Nautical Twilight
Astronomical Twilight
Moon
Length of Visible Light
Length of Day
Tomorrow will be .
, % of the Moon is Illuminated

Today's Extremes

State Highs State Lows

Community

WunderPhotos

Upload Photos

1,791,245 photos uploaded!

WunderBlogs® & News

Nearby

Air Quality

  Air Quality AQ Index Pollutant
Not available.

Snow Depth

Station Depth Elevation

Earthquake Activity

City Distance Mag. Time & Date
Minimum magnitude displayed is 2.5.

Coastal Water Temperatures

Place Temperature

Nearby Weather Stations